createdAt,value
2018-11-05T00:01:09.669Z,90.18
2018-11-05T00:03:40.741Z,90.20
2018-11-05T00:06:11.859Z,90.25
2018-11-05T00:08:44.994Z,90.36
2018-11-05T00:11:17.413Z,90.38
2018-11-05T00:13:48.938Z,90.35
2018-11-05T00:16:19.948Z,90.31
2018-11-05T00:18:53.259Z,90.32
2018-11-05T00:21:25.034Z,90.29
2018-11-05T00:23:56.169Z,90.31
2018-11-05T00:26:27.585Z,90.30
2018-11-05T00:28:59.105Z,90.31
2018-11-05T00:31:30.555Z,90.37
2018-11-05T00:34:01.776Z,90.36
2018-11-05T00:36:33.583Z,90.37
2018-11-05T00:39:05.638Z,90.37
2018-11-05T00:41:38.224Z,90.33
2018-11-05T00:44:10.508Z,90.26
2018-11-05T00:46:41.921Z,90.22
2018-11-05T00:49:13.401Z,90.19
2018-11-05T00:51:45.587Z,90.25
2018-11-05T00:54:16.584Z,90.34
2018-11-05T00:56:48.868Z,90.35
2018-11-05T00:59:20.629Z,90.34
2018-11-05T01:01:51.857Z,90.37
2018-11-05T01:04:23.315Z,90.33
2018-11-05T01:06:55.330Z,90.33
2018-11-05T01:09:27.767Z,90.33
2018-11-05T01:11:59.590Z,90.32
2018-11-05T01:14:31.475Z,90.31
2018-11-05T01:17:03.391Z,90.31
2018-11-05T01:19:34.906Z,90.27
2018-11-05T01:22:06.834Z,90.31
2018-11-05T01:24:38.211Z,90.32
2018-11-05T01:27:10.057Z,90.24
2018-11-05T01:29:41.634Z,90.14
2018-11-05T01:32:14.194Z,90.05
2018-11-05T01:34:45.200Z,90.02
2018-11-05T01:37:16.316Z,89.90
2018-11-05T01:39:48.738Z,89.90
2018-11-05T01:42:20.151Z,89.83
2018-11-05T01:44:51.370Z,89.76
2018-11-05T01:47:23.599Z,89.69
2018-11-05T01:49:54.674Z,89.68
2018-11-05T01:52:27.266Z,89.67
2018-11-05T01:54:58.424Z,89.62
2018-11-05T01:57:29.847Z,89.54
2018-11-05T02:00:01.326Z,89.54
2018-11-05T02:02:33.353Z,89.52
2018-11-05T02:05:04.859Z,89.53
2018-11-05T02:07:35.855Z,89.52
2018-11-05T02:10:10.905Z,89.46
2018-11-05T02:12:44.659Z,89.43
2018-11-05T02:15:15.870Z,89.41
2018-11-05T02:17:48.072Z,89.42
2018-11-05T02:20:19.436Z,89.47
2018-11-05T02:22:51.452Z,89.50
2018-11-05T02:25:23.475Z,89.50
2018-11-05T02:27:55.008Z,89.52
2018-11-05T02:30:26.159Z,89.48
2018-11-05T02:32:57.198Z,89.46
2018-11-05T02:35:29.619Z,89.40
2018-11-05T02:38:01.891Z,89.36
2018-11-05T02:40:32.958Z,89.30
2018-11-05T02:43:04.353Z,89.30
2018-11-05T02:45:35.889Z,89.33
2018-11-05T02:48:07.346Z,89.31
2018-11-05T02:50:39.382Z,89.32
2018-11-05T02:53:10.398Z,89.36
2018-11-05T02:55:41.849Z,89.33
2018-11-05T02:58:13.911Z,89.32
2018-11-05T03:00:45.794Z,89.33
2018-11-05T03:03:18.255Z,89.32
2018-11-05T03:05:50.140Z,89.35
2018-11-05T03:08:21.494Z,89.36
2018-11-05T03:10:53.285Z,89.45
2018-11-05T03:13:25.418Z,89.37
2018-11-05T03:15:56.481Z,89.33
2018-11-05T03:18:29.647Z,89.26
2018-11-05T03:21:01.970Z,89.29
2018-11-05T03:23:33.388Z,89.36
2018-11-05T03:26:06.122Z,89.35
2018-11-05T03:28:37.133Z,89.37
2018-11-05T03:31:08.518Z,89.38
2018-11-05T03:33:39.558Z,89.31
2018-11-05T03:36:11.903Z,89.31
2018-11-05T03:38:43.759Z,89.34
2018-11-05T03:41:15.313Z,89.39
2018-11-05T03:43:46.401Z,89.40
2018-11-05T03:46:17.812Z,89.42
2018-11-05T03:48:48.881Z,89.42
2018-11-05T03:51:21.278Z,89.41
2018-11-05T03:53:52.412Z,89.40
2018-11-05T03:56:24.878Z,89.37
2018-11-05T03:58:57.152Z,89.32
2018-11-05T04:01:28.636Z,89.33
2018-11-05T04:04:00.126Z,89.37
2018-11-05T04:06:31.943Z,89.45
2018-11-05T04:09:03.723Z,89.52
2018-11-05T04:11:35.825Z,89.54
2018-11-05T04:14:07.323Z,89.54
2018-11-05T04:16:39.304Z,89.55
2018-11-05T04:19:10.820Z,89.45
2018-11-05T04:21:45.485Z,89.46
2018-11-05T04:24:17.918Z,89.40
2018-11-05T04:26:49.960Z,89.38
2018-11-05T04:29:21.673Z,89.41
2018-11-05T04:31:53.073Z,89.49
2018-11-05T04:34:26.001Z,89.51
2018-11-05T04:36:58.322Z,89.50
2018-11-05T04:39:30.458Z,89.54
2018-11-05T04:42:02.519Z,89.59
2018-11-05T04:44:33.580Z,89.66
2018-11-05T04:47:04.671Z,89.71
2018-11-05T04:49:36.455Z,89.76
2018-11-05T04:52:08.206Z,89.77
2018-11-05T04:54:39.326Z,89.78
2018-11-05T04:57:11.478Z,89.79
2018-11-05T04:59:42.495Z,89.77
2018-11-05T05:02:13.992Z,89.78
2018-11-05T05:04:45.493Z,89.70
2018-11-05T05:07:17.388Z,89.70
2018-11-05T05:09:49.443Z,89.72
2018-11-05T05:12:20.480Z,89.72
2018-11-05T05:14:52.844Z,89.74
2018-11-05T05:17:25.606Z,89.73
2018-11-05T05:19:58.423Z,89.76
2018-11-05T05:22:30.490Z,89.76
2018-11-05T05:25:01.438Z,89.76
2018-11-05T05:27:33.879Z,89.74
2018-11-05T05:30:06.050Z,89.76
2018-11-05T05:32:38.053Z,89.81
2018-11-05T05:35:09.103Z,89.80
2018-11-05T05:37:41.308Z,89.78
2018-11-05T05:40:12.786Z,89.79
2018-11-05T05:42:45.917Z,89.77
2018-11-05T05:45:17.414Z,89.70
2018-11-05T05:47:48.461Z,89.63
2018-11-05T05:50:19.987Z,89.65
2018-11-05T05:52:53.008Z,89.66
2018-11-05T05:55:24.981Z,89.69
2018-11-05T05:57:57.272Z,89.73
2018-11-05T06:00:29.304Z,89.80
2018-11-05T06:03:00.378Z,89.75
2018-11-05T06:05:31.904Z,89.74
2018-11-05T06:08:03.958Z,89.73
2018-11-05T06:10:35.883Z,89.69
2018-11-05T06:13:07.931Z,89.65
2018-11-05T06:15:40.485Z,89.66
2018-11-05T06:18:12.245Z,89.68
2018-11-05T06:20:43.332Z,89.72
2018-11-05T06:23:14.788Z,89.63
2018-11-05T06:25:46.193Z,89.61
2018-11-05T06:28:17.675Z,89.67
2018-11-05T06:30:49.147Z,89.65
2018-11-05T06:33:20.242Z,89.66
2018-11-05T06:35:51.365Z,89.61
2018-11-05T06:38:22.445Z,89.56
2018-11-05T06:40:54.234Z,89.53
2018-11-05T06:43:26.513Z,89.43
2018-11-05T06:45:57.561Z,89.42
2018-11-05T06:48:29.075Z,89.45
2018-11-05T06:51:00.135Z,89.39
2018-11-05T06:53:31.242Z,89.42
2018-11-05T06:56:03.935Z,89.48
2018-11-05T06:58:35.840Z,89.53
2018-11-05T07:01:08.060Z,89.56
2018-11-05T07:03:39.502Z,89.56
2018-11-05T07:06:11.367Z,89.58
2018-11-05T07:08:43.749Z,89.59
2018-11-05T07:11:16.165Z,89.62
2018-11-05T07:13:48.086Z,89.68
2018-11-05T07:16:20.401Z,89.71
2018-11-05T07:18:53.034Z,89.69
2018-11-05T07:21:24.395Z,89.74
2018-11-05T07:23:55.828Z,89.75
2018-11-05T07:26:26.896Z,89.77
2018-11-05T07:28:58.517Z,89.73
2018-11-05T07:31:30.378Z,89.70
2018-11-05T07:34:03.252Z,89.67
2018-11-05T07:36:34.034Z,89.64
2018-11-05T07:39:07.259Z,89.57
2018-11-05T07:41:38.999Z,89.61
2018-11-05T07:44:11.493Z,89.64
2018-11-05T07:46:43.090Z,89.63
2018-11-05T07:49:14.770Z,89.61
2018-11-05T07:51:46.932Z,89.56
2018-11-05T07:54:18.781Z,89.54
2018-11-05T07:56:50.159Z,89.54
2018-11-05T07:59:21.989Z,89.49
2018-11-05T08:01:54.392Z,89.52
2018-11-05T08:04:26.034Z,89.50
2018-11-05T08:06:57.281Z,89.50
2018-11-05T08:09:28.819Z,89.42
2018-11-05T08:11:59.859Z,89.39
2018-11-05T08:14:31.630Z,89.36
2018-11-05T08:17:04.424Z,89.35
2018-11-05T08:19:35.965Z,89.26
2018-11-05T08:22:07.061Z,89.24
2018-11-05T08:24:38.069Z,89.17
2018-11-05T08:27:10.507Z,89.15
2018-11-05T08:29:42.137Z,89.08
2018-11-05T08:32:14.776Z,89.00
2018-11-05T08:34:45.819Z,89.00
2018-11-05T08:37:16.958Z,89.04
2018-11-05T08:39:49.290Z,89.00
2018-11-05T08:42:20.392Z,89.01
2018-11-05T08:44:51.812Z,89.01
2018-11-05T08:47:23.353Z,88.99
2018-11-05T08:49:55.374Z,88.86
2018-11-05T08:52:26.985Z,88.74
2018-11-05T08:54:58.005Z,88.71
2018-11-05T08:57:29.614Z,88.62
2018-11-05T09:00:03.058Z,88.55
2018-11-05T09:02:34.104Z,88.47
2018-11-05T09:05:05.233Z,88.44
2018-11-05T09:07:36.352Z,88.42
2018-11-05T09:10:08.464Z,88.42
2018-11-05T09:12:39.376Z,88.32
2018-11-05T09:15:12.702Z,88.21
2018-11-05T09:17:46.187Z,88.17
2018-11-05T09:20:18.419Z,88.15
2018-11-05T09:22:50.275Z,88.12
2018-11-05T09:25:21.504Z,88.15
2018-11-05T09:27:53.047Z,88.13
2018-11-05T09:30:25.173Z,88.16
2018-11-05T09:32:56.218Z,88.04
2018-11-05T09:35:27.306Z,88.02
2018-11-05T09:37:58.784Z,88.07
2018-11-05T09:40:30.997Z,88.09
2018-11-05T09:43:02.418Z,88.05
2018-11-05T09:45:33.467Z,87.99
2018-11-05T09:48:04.877Z,87.87
2018-11-05T09:50:36.588Z,87.67
2018-11-05T09:53:07.722Z,87.63
2018-11-05T09:55:39.745Z,87.65
2018-11-05T09:58:10.717Z,87.62
2018-11-05T10:00:41.792Z,87.49
2018-11-05T10:03:17.245Z,87.39
2018-11-05T10:05:48.390Z,87.28
2018-11-05T10:08:19.910Z,87.16
2018-11-05T10:10:52.375Z,87.14
2018-11-05T10:13:23.425Z,87.08
2018-11-05T10:15:54.511Z,87.05
2018-11-05T10:18:26.388Z,87.11
2018-11-05T10:20:58.442Z,87.09
2018-11-05T10:23:29.636Z,87.02
2018-11-05T10:26:00.672Z,87.08
2018-11-05T10:28:32.636Z,87.03
2018-11-05T10:31:03.664Z,86.97
2018-11-05T10:33:34.860Z,86.97
2018-11-05T10:36:05.783Z,86.90
2018-11-05T10:38:37.244Z,86.82
2018-11-05T10:41:08.393Z,86.65
2018-11-05T10:43:39.441Z,86.48
2018-11-05T10:46:11.342Z,86.45
2018-11-05T10:48:42.331Z,86.35
2018-11-05T10:51:13.512Z,86.37
2018-11-05T10:53:45.014Z,86.40
2018-11-05T10:56:16.349Z,86.35
2018-11-05T10:58:48.229Z,86.41
2018-11-05T11:01:37.958Z,86.51
2018-11-05T11:04:26.756Z,86.54
2018-11-05T11:06:58.229Z,86.51
2018-11-05T11:09:29.407Z,86.52
2018-11-05T11:12:01.587Z,86.43
2018-11-05T11:14:33.094Z,86.29
2018-11-05T11:17:05.070Z,86.30
2018-11-05T11:19:36.284Z,86.36
2018-11-05T11:22:07.374Z,86.39
2018-11-05T11:24:38.769Z,86.34
2018-11-05T11:27:10.184Z,86.30
2018-11-05T11:29:41.739Z,86.04
2018-11-05T11:32:13.507Z,85.88
2018-11-05T11:34:46.864Z,85.84
2018-11-05T11:37:19.092Z,85.88
2018-11-05T11:39:51.891Z,85.75
2018-11-05T11:42:23.504Z,85.58
2018-11-05T11:44:55.168Z,85.51
2018-11-05T11:47:26.317Z,85.51
2018-11-05T11:49:58.333Z,85.62
2018-11-05T11:52:29.451Z,85.54
2018-11-05T11:55:00.445Z,85.48
2018-11-05T11:57:32.353Z,85.53
2018-11-05T12:00:03.740Z,85.54
2018-11-05T12:02:34.802Z,85.65
2018-11-05T12:05:07.148Z,85.60
2018-11-05T12:07:38.023Z,85.46
2018-11-05T12:10:29.988Z,85.45
2018-11-05T12:13:01.275Z,85.39
2018-11-05T12:15:32.682Z,85.38
2018-11-05T12:18:04.282Z,85.43
2018-11-05T12:20:35.810Z,85.56
2018-11-05T12:23:06.937Z,85.49
2018-11-05T12:25:38.700Z,85.53
2018-11-05T12:28:10.154Z,85.40
2018-11-05T12:30:41.595Z,85.36
2018-11-05T12:33:13.019Z,85.30
2018-11-05T12:35:44.902Z,85.41
2018-11-05T12:38:15.947Z,85.54
2018-11-05T12:40:47.438Z,85.72
2018-11-05T12:43:19.338Z,85.76
2018-11-05T12:45:50.367Z,85.83
2018-11-05T12:48:21.427Z,85.72
2018-11-05T12:50:53.268Z,85.71
2018-11-05T12:53:24.619Z,85.62
2018-11-05T12:55:56.676Z,85.61
2018-11-05T12:58:28.127Z,85.69
2018-11-05T13:01:00.515Z,85.79
2018-11-05T13:03:33.954Z,85.91
2018-11-05T13:06:05.501Z,86.02
2018-11-05T13:08:36.865Z,86.00
2018-11-05T13:11:08.335Z,85.92
2018-11-05T13:13:41.158Z,85.83
2018-11-05T13:16:12.730Z,85.88
2018-11-05T13:18:43.782Z,85.92
2018-11-05T13:21:15.852Z,86.01
2018-11-05T13:23:47.764Z,85.87
2018-11-05T13:26:19.167Z,85.82
2018-11-05T13:28:50.233Z,85.90
2018-11-05T13:31:22.184Z,85.93
2018-11-05T13:33:53.443Z,85.92
2018-11-05T13:36:25.058Z,85.82
2018-11-05T13:38:58.624Z,85.74
2018-11-05T13:41:29.666Z,85.84
2018-11-05T13:44:02.539Z,85.73
2018-11-05T13:46:35.476Z,85.65
2018-11-05T13:49:06.458Z,85.57
2018-11-05T13:51:37.163Z,85.55
2018-11-05T13:54:09.540Z,85.53
2018-11-05T13:56:41.189Z,85.55
2018-11-05T13:59:12.704Z,85.52
2018-11-05T14:01:45.032Z,85.45
2018-11-05T14:04:16.204Z,85.52
2018-11-05T14:06:47.993Z,85.62
2018-11-05T14:09:19.954Z,85.73
2018-11-05T14:11:51.432Z,85.81
2018-11-05T14:14:22.484Z,85.91
2018-11-05T14:16:54.124Z,85.91
2018-11-05T14:19:25.186Z,85.93
2018-11-05T14:21:56.269Z,85.81
2018-11-05T14:24:27.338Z,85.65
2018-11-05T14:26:59.247Z,85.66
2018-11-05T14:29:31.159Z,85.49
2018-11-05T14:32:01.749Z,85.57
2018-11-05T14:34:33.659Z,85.71
2018-11-05T14:37:05.592Z,85.76
2018-11-05T14:39:37.282Z,85.71
2018-11-05T14:42:08.343Z,85.79
2018-11-05T14:44:40.332Z,85.87
2018-11-05T14:47:11.849Z,85.85
2018-11-05T14:49:42.904Z,85.86
2018-11-05T14:52:14.330Z,85.70
2018-11-05T14:54:45.517Z,85.62
2018-11-05T14:57:17.871Z,85.55
2018-11-05T14:59:50.707Z,85.38
2018-11-05T15:02:37.992Z,85.24
2018-11-05T15:05:10.227Z,85.18
2018-11-05T15:07:42.971Z,84.96
2018-11-05T15:10:15.226Z,85.04
2018-11-05T15:12:46.780Z,85.17
2018-11-05T15:15:19.302Z,85.12
2018-11-05T15:17:51.545Z,85.15
2018-11-05T15:20:23.718Z,85.27
2018-11-05T15:22:54.721Z,85.26
2018-11-05T15:25:26.740Z,85.29
2018-11-05T15:27:57.896Z,85.26
2018-11-05T15:30:29.304Z,85.27
2018-11-05T15:33:00.322Z,85.23
2018-11-05T15:35:32.265Z,85.22
2018-11-05T15:38:04.188Z,85.26
2018-11-05T15:40:35.282Z,85.12
2018-11-05T15:43:07.703Z,85.16
2018-11-05T15:45:39.277Z,85.21
2018-11-05T15:48:10.712Z,85.25
2018-11-05T15:50:42.509Z,85.25
2018-11-05T15:53:14.597Z,85.36
2018-11-05T15:55:45.935Z,85.23
2018-11-05T15:58:17.975Z,85.23
2018-11-05T16:00:50.062Z,85.23
2018-11-05T16:03:21.612Z,85.20
2018-11-05T16:05:54.238Z,85.27
2018-11-05T16:08:25.905Z,85.47
2018-11-05T16:10:57.450Z,85.64
2018-11-05T16:13:28.976Z,85.74
2018-11-05T16:16:00.016Z,85.72
2018-11-05T16:18:31.426Z,85.63
2018-11-05T16:21:03.463Z,85.67
2018-11-05T16:23:34.629Z,85.70
2018-11-05T16:26:07.834Z,85.74
2018-11-05T16:28:39.870Z,85.86
2018-11-05T16:31:11.049Z,85.91
2018-11-05T16:33:42.703Z,85.99
2018-11-05T16:36:13.786Z,86.09
2018-11-05T16:38:46.489Z,86.18
2018-11-05T16:41:19.015Z,86.18
2018-11-05T16:43:50.030Z,86.16
2018-11-05T16:46:21.148Z,86.13
2018-11-05T16:48:52.145Z,86.13
2018-11-05T16:51:25.069Z,86.05
2018-11-05T16:53:57.100Z,86.06
2018-11-05T16:56:28.968Z,86.05
2018-11-05T16:59:00.086Z,86.06
2018-11-05T17:01:31.781Z,86.12
2018-11-05T17:04:03.464Z,86.20
2018-11-05T17:06:34.510Z,86.26
2018-11-05T17:09:07.305Z,86.27
2018-11-05T17:11:39.034Z,86.14
2018-11-05T17:14:11.330Z,86.15
2018-11-05T17:16:43.112Z,86.11
2018-11-05T17:19:15.660Z,86.07
2018-11-05T17:21:46.936Z,85.99
2018-11-05T17:24:18.140Z,85.95
2018-11-05T17:26:49.489Z,86.02
2018-11-05T17:29:20.771Z,86.11
2018-11-05T17:31:51.866Z,86.19
2018-11-05T17:34:23.170Z,86.35
2018-11-05T17:36:54.550Z,86.36
2018-11-05T17:39:26.007Z,86.42
2018-11-05T17:41:57.057Z,86.51
2018-11-05T17:44:28.076Z,86.62
2018-11-05T17:47:00.567Z,86.73
2018-11-05T17:49:33.237Z,86.84
2018-11-05T17:52:05.307Z,86.83
2018-11-05T17:54:36.519Z,86.93
2018-11-05T17:57:07.778Z,87.00
2018-11-05T17:59:40.683Z,87.05
2018-11-05T18:02:18.659Z,87.12
2018-11-05T18:04:50.688Z,87.15
2018-11-05T18:07:22.391Z,87.09
2018-11-05T18:09:55.448Z,87.12
2018-11-05T18:12:27.401Z,87.12
2018-11-05T18:15:18.036Z,87.12
2018-11-05T18:17:49.527Z,87.07
2018-11-05T18:20:21.062Z,87.08
2018-11-05T18:22:52.248Z,87.09
2018-11-05T18:25:23.459Z,87.11
2018-11-05T18:27:54.531Z,87.07
2018-11-05T18:30:27.245Z,87.00
2018-11-05T18:32:59.163Z,86.93
2018-11-05T18:35:31.029Z,86.99
2018-11-05T18:38:02.125Z,87.11
2018-11-05T18:40:33.209Z,87.33
2018-11-05T18:43:06.187Z,87.51
2018-11-05T18:45:37.863Z,87.65
2018-11-05T18:48:09.842Z,87.75
2018-11-05T18:50:41.810Z,87.79
2018-11-05T18:53:13.917Z,87.89
2018-11-05T18:55:45.369Z,87.80
2018-11-05T18:58:16.904Z,87.79
2018-11-05T19:00:49.311Z,87.84
2018-11-05T19:03:22.462Z,87.81
2018-11-05T19:05:53.706Z,87.68
2018-11-05T19:08:25.687Z,87.76
2018-11-05T19:10:57.545Z,88.00
2018-11-05T19:13:29.342Z,88.13
2018-11-05T19:16:00.773Z,88.18
2018-11-05T19:18:32.186Z,88.19
2018-11-05T19:21:03.946Z,88.29
2018-11-05T19:23:36.374Z,88.42
2018-11-05T19:26:07.714Z,88.49
2018-11-05T19:28:40.661Z,88.44
2018-11-05T19:31:11.592Z,88.46
2018-11-05T19:33:42.885Z,88.55
2018-11-05T19:36:14.309Z,88.63
2018-11-05T19:38:46.500Z,88.56
2018-11-05T19:41:19.342Z,88.44
2018-11-05T19:43:51.529Z,88.35
2018-11-05T19:46:25.401Z,88.30
2018-11-05T19:48:57.655Z,88.14
2018-11-05T19:51:33.789Z,88.04
2018-11-05T19:54:09.889Z,88.03
2018-11-05T19:56:45.756Z,88.11
2018-11-05T19:59:21.355Z,88.02
2018-11-05T20:01:56.235Z,87.89
2018-11-05T20:04:31.530Z,87.63
2018-11-05T20:07:09.716Z,87.49
2018-11-05T20:09:44.653Z,87.36
2018-11-05T20:12:36.806Z,87.21
2018-11-05T20:15:11.264Z,87.11
2018-11-05T20:17:44.981Z,87.14
2018-11-05T20:20:18.502Z,87.05
2018-11-05T20:22:50.772Z,87.08
2018-11-05T20:25:23.924Z,87.22
2018-11-05T20:27:55.256Z,87.43
2018-11-05T20:30:28.365Z,87.63
2018-11-05T20:33:00.277Z,87.69
2018-11-05T20:35:30.995Z,87.77
2018-11-05T20:38:02.029Z,87.84
2018-11-05T20:40:34.786Z,87.84
2018-11-05T20:43:06.960Z,87.85
2018-11-05T20:45:38.371Z,87.87
2018-11-05T20:48:10.030Z,87.93
2018-11-05T20:50:41.120Z,87.96
2018-11-05T20:53:12.195Z,87.86
2018-11-05T20:55:44.263Z,87.90
2018-11-05T20:58:16.264Z,87.99
2018-11-05T21:00:47.348Z,87.99
2018-11-05T21:03:19.331Z,87.79
2018-11-05T21:05:51.619Z,87.72
2018-11-05T21:08:22.996Z,87.72
2018-11-05T21:10:54.184Z,87.86
2018-11-05T21:13:26.518Z,87.87
2018-11-05T21:15:57.619Z,87.91
2018-11-05T21:18:29.273Z,88.08
2018-11-05T21:21:00.854Z,88.07
2018-11-05T21:23:31.892Z,87.93
2018-11-05T21:26:03.835Z,87.87
2018-11-05T21:28:35.336Z,87.86
2018-11-05T21:31:09.227Z,87.76
2018-11-05T21:33:40.239Z,87.57
2018-11-05T21:36:11.462Z,87.55
2018-11-05T21:38:42.900Z,87.64
2018-11-05T21:41:15.874Z,87.67
2018-11-05T21:43:49.635Z,87.69
2018-11-05T21:46:21.767Z,87.71
2018-11-05T21:48:52.922Z,87.60
2018-11-05T21:51:24.058Z,87.38
2018-11-05T21:53:55.533Z,87.43
2018-11-05T21:56:26.855Z,87.52
2018-11-05T21:58:58.945Z,87.58
2018-11-05T22:01:32.043Z,87.60
2018-11-05T22:04:04.301Z,87.62
2018-11-05T22:06:35.762Z,87.68
2018-11-05T22:09:09.186Z,87.69
2018-11-05T22:11:40.586Z,87.65
2018-11-05T22:14:11.630Z,87.69
2018-11-05T22:16:42.626Z,87.71
2018-11-05T22:19:14.181Z,87.64
2018-11-05T22:21:45.791Z,87.58
2018-11-05T22:24:17.779Z,87.46
2018-11-05T22:26:49.029Z,87.51
2018-11-05T22:29:20.493Z,87.60
2018-11-05T22:31:51.516Z,87.64
2018-11-05T22:34:23.189Z,87.68
2018-11-05T22:36:54.622Z,87.69
2018-11-05T22:39:26.058Z,87.60
2018-11-05T22:41:57.107Z,87.39
2018-11-05T22:44:29.557Z,87.36
2018-11-05T22:47:03.173Z,87.31
2018-11-05T22:49:35.118Z,87.31
2018-11-05T22:52:07.067Z,87.28
2018-11-05T22:54:38.920Z,87.25
2018-11-05T22:57:10.618Z,87.11
2018-11-05T22:59:42.986Z,86.93
2018-11-05T23:02:15.309Z,86.86
2018-11-05T23:04:46.780Z,86.81
2018-11-05T23:07:19.100Z,86.99
2018-11-05T23:09:50.631Z,87.07
2018-11-05T23:12:21.658Z,87.12
2018-11-05T23:14:52.736Z,87.30
2018-11-05T23:17:23.813Z,87.29
2018-11-05T23:19:55.719Z,87.32
2018-11-05T23:22:27.119Z,87.41
2018-11-05T23:24:59.596Z,87.53
2018-11-05T23:27:31.308Z,87.66
2018-11-05T23:30:02.365Z,87.62
2018-11-05T23:32:36.190Z,87.63
2018-11-05T23:35:07.943Z,87.63
2018-11-05T23:37:40.173Z,87.60
2018-11-05T23:40:12.671Z,87.69
2018-11-05T23:42:43.705Z,87.71
2018-11-05T23:45:16.049Z,87.81
2018-11-05T23:47:48.170Z,87.82
2018-11-05T23:50:20.116Z,87.56
2018-11-05T23:52:51.592Z,87.54
2018-11-05T23:55:23.064Z,87.48
2018-11-05T23:57:54.760Z,87.67
